Time;durP1;ratioP1;P1;durP2;ratioP2;P2;SDS_P1;SDS_P2;PMS_P1;PMS_P2;Temp;Humidity;BMP_temperature;BMP_pressure;BME280_temperature;BME280_humidity;BME280_pressure;Samples;Min_cycle;Max_cycle;Signal;HPM_P1;HPM_P2
2021/01/29 00:01:35;;;;;;;1.67;1.55;;;;;;;9.10;50.66;97904.73;1717241;83;21171;-72
2021/01/29 00:04:03;;;;;;;2.55;1.80;;;;;;;9.08;50.67;97904.95;1699827;83;21188;-71
2021/01/29 00:06:31;;;;;;;2.22;1.87;;;;;;;9.07;50.65;97899.34;1705124;83;21151;-71
2021/01/29 00:08:58;;;;;;;2.33;1.80;;;;;;;9.07;50.67;97903.31;1698443;84;21582;-70
2021/01/29 00:11:26;;;;;;;1.82;1.62;;;;;;;9.07;50.66;97898.02;1701177;84;21274;-71
2021/01/29 00:13:53;;;;;;;2.58;2.00;;;;;;;9.05;50.65;97890.27;1701642;83;21191;-72
2021/01/29 00:16:21;;;;;;;1.75;1.65;;;;;;;9.06;50.65;97896.41;1687693;84;21124;-72
2021/01/29 00:18:48;;;;;;;2.35;1.70;;;;;;;9.06;50.66;97895.08;1704430;84;21140;-70
2021/01/29 00:21:16;;;;;;;2.10;1.90;;;;;;;9.06;50.63;97889.78;1698142;84;21554;-70
2021/01/29 00:23:43;;;;;;;2.62;1.60;;;;;;;9.05;50.61;97883.64;1703421;84;21705;-70
2021/01/29 00:26:10;;;;;;;2.02;1.77;;;;;;;9.04;50.63;97886.52;1696345;84;21195;-71
2021/01/29 00:28:38;;;;;;;2.27;1.75;;;;;;;9.03;50.63;97885.69;1698891;84;21168;-70
2021/01/29 00:31:05;;;;;;;2.87;1.75;;;;;;;9.02;50.62;97888.04;1705112;83;21204;-70
2021/01/29 00:33:33;;;;;;;1.72;1.42;;;;;;;9.02;50.63;97891.17;1700720;84;22144;-70
2021/01/29 00:36:00;;;;;;;2.30;1.70;;;;;;;9.02;50.61;97886.72;1704808;84;21387;-71
2021/01/29 00:38:27;;;;;;;2.10;1.70;;;;;;;9.00;50.59;97878.65;1699945;83;21155;-71
2021/01/29 00:40:55;;;;;;;2.52;1.87;;;;;;;9.00;50.61;97870.22;1703641;84;21168;-70
2021/01/29 00:43:22;;;;;;;1.65;1.52;;;;;;;9.00;50.60;97866.73;1674799;84;21198;-70
2021/01/29 00:45:50;;;;;;;2.08;1.62;;;;;;;8.98;50.58;97872.25;1694293;84;21582;-71
2021/01/29 00:48:17;;;;;;;2.60;1.90;;;;;;;8.99;50.58;97862.47;1699934;84;21746;-70
2021/01/29 00:50:44;;;;;;;2.72;1.75;;;;;;;8.98;50.59;97866.95;1694951;84;21630;-71
2021/01/29 00:53:13;;;;;;;2.10;1.45;;;;;;;8.98;50.59;97862.14;1700605;84;21599;-71
2021/01/29 00:55:40;;;;;;;2.15;1.72;;;;;;;8.96;50.59;97857.08;1683967;84;21144;-71
2021/01/29 00:58:09;;;;;;;2.02;1.35;;;;;;;8.96;50.60;97854.92;1701343;83;21233;-71
2021/01/29 01:00:55;;;;;;;2.95;1.80;;;;;;;8.95;50.59;97856.76;1700354;84;21640;-71
2021/01/29 01:03:25;;;;;;;2.42;1.80;;;;;;;8.93;50.58;97855.34;1696683;83;21211;-70
2021/01/29 01:05:53;;;;;;;2.30;1.90;;;;;;;8.93;50.61;97854.02;1698576;83;21580;-70
2021/01/29 01:08:22;;;;;;;2.58;1.87;;;;;;;8.92;50.61;97850.53;1710811;83;21189;-70
2021/01/29 01:10:50;;;;;;;2.17;1.70;;;;;;;8.92;50.60;97850.53;1718525;83;21168;-70
2021/01/29 01:13:30;;;;;;;2.20;1.60;;;;;;;8.95;50.61;97847.49;1827576;77;27554;-70
2021/01/29 01:16:16;;;;;;;2.05;1.62;;;;;;;8.92;50.60;97847.08;1794805;79;21037;-70
2021/01/29 01:18:44;;;;;;;2.42;1.77;;;;;;;8.89;50.58;97841.69;1781091;79;21721;-70
2021/01/29 01:21:20;;;;;;;1.92;1.50;;;;;;;8.89;50.60;97847.50;1786915;77;21174;-71
2021/01/29 01:23:51;;;;;;;2.37;1.45;;;;;;;8.88;50.63;97849.83;1796577;77;21186;-70
2021/01/29 01:26:19;;;;;;;2.20;1.80;;;;;;;8.87;50.59;97853.52;1804381;79;21398;-66
2021/01/29 01:29:05;;;;;;;2.17;1.80;;;;;;;8.85;50.61;97850.55;1801275;79;21630;-68
2021/01/29 01:31:34;;;;;;;1.70;1.45;;;;;;;8.84;50.61;97848.09;1813929;77;21199;-69
2021/01/29 01:34:14;;;;;;;2.22;1.50;;;;;;;8.87;50.60;97842.41;1814702;77;28912;-68
2021/01/29 01:36:46;;;;;;;2.22;1.70;;;;;;;8.82;50.62;97851.45;1763257;79;21173;-68
2021/01/29 01:39:16;;;;;;;1.77;1.37;;;;;;;8.82;50.62;97852.78;1786672;79;22399;-69
2021/01/29 01:41:43;;;;;;;2.40;1.70;;;;;;;8.80;50.62;97846.36;1793199;80;21628;-67
2021/01/29 01:44:34;;;;;;;2.02;1.60;;;;;;;8.80;50.63;97843.70;1784773;79;21739;-68
2021/01/29 01:47:14;;;;;;;1.60;1.47;;;;;;;8.79;50.62;97840.77;1806755;78;21181;-66
2021/01/29 01:49:41;;;;;;;2.72;1.72;;;;;;;8.79;50.65;97838.64;1781500;79;21182;-67
2021/01/29 01:52:32;;;;;;;2.85;1.75;;;;;;;8.77;50.64;97830.89;1799631;77;21208;-67
2021/01/29 01:55:17;;;;;;;2.80;1.40;;;;;;;8.80;50.63;97835.77;1840267;76;28323;-67
2021/01/29 01:57:48;;;;;;;1.80;1.57;;;;;;;8.75;50.61;97834.74;1825098;76;21140;-68
2021/01/29 02:00:28;;;;;;;2.05;1.42;;;;;;;8.73;50.62;97831.00;1834366;77;21382;-69
2021/01/29 02:03:23;;;;;;;1.45;1.30;;;;;;;8.73;50.64;97837.62;1834206;77;21637;-69
2021/01/29 02:06:03;;;;;;;1.98;1.37;;;;;;;8.75;50.69;97836.06;1818256;77;28191;-68
2021/01/29 02:08:37;;;;;;;1.80;1.40;;;;;;;8.69;50.67;97835.04;1791591;79;21647;-68
2021/01/29 02:11:26;;;;;;;1.92;1.50;;;;;;;8.73;50.67;97831.00;1753639;80;28255;-70
2021/01/29 02:13:56;;;;;;;2.17;1.57;;;;;;;8.68;50.64;97827.33;1802149;79;21198;-69
2021/01/29 02:17:01;;;;;;;1.85;1.65;;;;;;;8.67;50.66;97814.58;1787247;79;21344;-68
2021/01/29 02:20:31;;;;;;;1.82;1.30;;;;;;;8.65;50.65;97813.48;1772201;79;21150;-69
2021/01/29 02:23:18;;;;;;;2.20;1.80;;;;;;;8.63;50.67;97824.78;1785790;79;21589;-70
2021/01/29 02:26:43;;;;;;;1.40;1.30;;;;;;;8.58;50.73;97823.76;1722309;80;21202;-69
2021/01/29 02:29:23;;;;;;;1.45;1.30;;;;;;;8.56;50.74;97817.34;1796040;79;21230;-70
2021/01/29 02:32:22;;;;;;;1.62;1.15;;;;;;;8.54;50.77;97819.89;1773344;79;22502;-69
2021/01/29 02:35:36;;;;;;;2.10;1.37;;;;;;;8.52;50.79;97810.82;1777552;79;21193;-70
2021/01/29 02:38:49;;;;;;;1.72;1.55;;;;;;;8.51;50.78;97816.31;1773307;79;21186;-68
2021/01/29 02:41:40;;;;;;;1.35;1.25;;;;;;;8.48;50.80;97808.77;1780871;79;21164;-69
2021/01/29 02:44:33;;;;;;;2.90;1.70;;;;;;;8.44;50.86;97813.16;1783933;79;21174;-69
2021/01/29 02:47:27;;;;;;;1.57;1.25;;;;;;;8.43;50.85;97805.41;1789246;79;21422;-68
2021/01/29 02:50:31;;;;;;;1.98;1.42;;;;;;;8.40;50.88;97823.80;1771323;79;21209;-71
2021/01/29 02:53:39;;;;;;;1.60;1.10;;;;;;;8.40;50.89;97805.77;1793530;79;21316;-67
2021/01/29 02:56:38;;;;;;;2.20;1.30;;;;;;;8.30;50.86;97800.87;1798188;79;21582;-69
2021/01/29 02:59:44;;;;;;;2.00;1.12;;;;;;;8.39;50.93;97804.16;1837092;77;26580;-69
2021/01/29 03:02:41;;;;;;;1.25;1.00;;;;;;;8.35;50.88;97807.70;1813809;78;21300;-69
2021/01/29 03:05:21;;;;;;;2.17;1.67;;;;;;;8.32;50.90;97806.77;1814223;77;21212;-70
2021/01/29 03:08:02;;;;;;;1.37;1.10;;;;;;;8.32;50.88;97801.48;1844371;77;21134;-69
2021/01/29 03:11:12;;;;;;;1.62;1.50;;;;;;;8.32;50.86;97805.45;1838355;77;21000;-68
2021/01/29 03:14:23;;;;;;;1.90;1.40;;;;;;;8.32;50.85;97804.13;1832056;77;21710;-70
2021/01/29 03:17:33;;;;;;;1.40;1.22;;;;;;;8.33;50.84;97787.25;1847376;77;27388;-68
2021/01/29 03:20:31;;;;;;;1.98;1.10;;;;;;;8.26;50.83;97795.16;1833240;75;21007;-68
2021/01/29 03:23:28;;;;;;;2.47;1.52;;;;;;;8.25;50.83;97787.45;1834061;75;21371;-68
2021/01/29 03:26:21;;;;;;;1.65;1.40;;;;;;;8.22;50.84;97791.80;1850392;77;21139;-68
2021/01/29 03:29:11;;;;;;;1.40;1.07;;;;;;;8.21;50.85;97795.48;1836548;77;21389;-68
2021/01/29 03:31:58;;;;;;;1.37;1.22;;;;;;;8.10;50.86;97771.75;1848028;77;21610;-70
2021/01/29 03:34:49;;;;;;;2.10;1.67;;;;;;;8.20;50.82;97791.19;1850587;75;21151;-71
2021/01/29 03:37:55;;;;;;;1.27;1.17;;;;;;;8.19;50.81;97787.74;1835523;77;21166;-68
2021/01/29 03:40:42;;;;;;;2.52;1.27;;;;;;;8.18;50.80;97783.97;1843046;75;21052;-69
2021/01/29 03:43:47;;;;;;;1.72;1.17;;;;;;;8.16;50.78;97782.84;1853829;75;21182;-68
2021/01/29 03:47:11;;;;;;;2.17;1.40;;;;;;;8.15;50.78;97785.20;1785737;78;21189;-69
2021/01/29 03:50:22;;;;;;;1.95;1.50;;;;;;;8.14;50.76;97786.20;1803801;78;21594;-68
2021/01/29 03:53:33;;;;;;;1.60;1.20;;;;;;;8.12;50.81;97782.94;1766819;78;21392;-70
2021/01/29 03:56:41;;;;;;;1.67;1.10;;;;;;;8.08;50.84;97781.71;1801013;78;21181;-68
2021/01/29 03:59:41;;;;;;;3.65;1.50;;;;;;;8.05;50.86;97778.97;1840942;77;21170;-69
2021/01/29 04:03:05;;;;;;;1.62;1.30;;;;;;;8.02;50.91;97783.33;1804776;78;21192;-69
2021/01/29 04:06:13;;;;;;;1.80;1.40;;;;;;;8.00;50.94;97790.64;1813035;78;21137;-69
2021/01/29 04:09:40;;;;;;;2.20;1.20;;;;;;;7.97;50.96;97785.73;1824417;78;21703;-71
2021/01/29 04:12:57;;;;;;;2.42;1.40;;;;;;;7.94;50.99;97782.19;1805150;77;21189;-70
2021/01/29 04:15:50;;;;;;;2.15;1.50;;;;;;;7.91;51.03;97787.05;1824143;75;21102;-69
2021/01/29 04:18:31;;;;;;;2.05;1.47;;;;;;;7.90;51.04;97787.56;1852026;77;21161;-68
2021/01/29 04:21:18;;;;;;;1.92;1.47;;;;;;;7.90;51.02;97780.12;1833465;77;21142;-68
2021/01/29 04:24:13;;;;;;;2.30;1.75;;;;;;;7.90;51.02;97776.99;1842402;77;21189;-68
2021/01/29 04:26:54;;;;;;;3.22;1.98;;;;;;;7.91;50.99;97779.93;1793863;78;21129;-67
2021/01/29 04:29:32;;;;;;;2.80;1.80;;;;;;;7.91;50.94;97779.93;1794023;78;21141;-67
2021/01/29 04:32:03;;;;;;;2.40;1.62;;;;;;;7.91;50.89;97773.32;1803355;77;21161;-68
2021/01/29 04:34:34;;;;;;;2.98;2.37;;;;;;;7.92;50.85;97773.64;1805556;78;21192;-68
2021/01/29 04:37:05;;;;;;;2.60;1.77;;;;;;;7.92;50.81;97772.32;1801525;78;21157;-67
2021/01/29 04:39:39;;;;;;;2.72;1.95;;;;;;;7.93;50.77;97773.94;1841434;77;21643;-68
2021/01/29 04:42:21;;;;;;;2.67;1.90;;;;;;;7.93;50.75;97769.97;1832692;76;21505;-68
2021/01/29 04:45:41;;;;;;;2.42;2.12;;;;;;;7.94;50.70;97774.25;1807150;77;21119;-68
2021/01/29 04:48:28;;;;;;;3.12;2.05;;;;;;;7.93;50.64;97776.58;1825743;78;21155;-68
2021/01/29 04:51:20;;;;;;;2.55;2.12;;;;;;;7.91;50.66;97774.64;1825674;78;22689;-67
2021/01/29 04:54:14;;;;;;;3.37;1.90;;;;;;;7.89;50.65;97759.48;1842158;77;21490;-68
2021/01/29 04:56:54;;;;;;;;;;;;;;;7.88;50.63;97765.29;1828575;77;21142;-70
2021/01/29 04:59:59;;;;;;;3.42;2.17;;;;;;;7.87;50.62;97779.51;1840250;77;20549;-69
2021/01/29 05:03:02;;;;;;;3.10;1.95;;;;;;;7.78;50.75;97776.73;1848371;77;21579;-68
2021/01/29 05:06:31;;;;;;;2.77;2.08;;;;;;;7.77;50.69;97779.08;1798259;77;21212;-68
2021/01/29 05:09:50;;;;;;;2.90;2.12;;;;;;;7.76;50.70;97758.92;1801785;78;21137;-70
2021/01/29 05:13:08;;;;;;;3.10;2.30;;;;;;;7.76;50.76;97772.14;1840808;77;26570;-68
2021/01/29 05:16:16;;;;;;;2.92;2.37;;;;;;;7.71;50.73;97765.82;1779944;79;21139;-69
2021/01/29 05:19:34;;;;;;;3.60;2.30;;;;;;;7.71;50.75;97761.86;1777835;79;21207;-70
2021/01/29 05:22:22;;;;;;;3.58;2.42;;;;;;;7.67;50.75;97746.41;1810342;79;21101;-70
2021/01/29 05:25:34;;;;;;;3.67;2.62;;;;;;;7.66;50.76;97766.42;1781609;79;21700;-71
2021/01/29 05:28:43;;;;;;;4.08;2.98;;;;;;;7.65;50.76;97768.78;1785731;79;21420;-69
2021/01/29 05:31:38;;;;;;;4.58;2.90;;;;;;;7.64;50.71;97769.77;1784571;79;21130;-70
2021/01/29 05:35:01;;;;;;;4.62;3.12;;;;;;;7.64;50.70;97760.52;1770378;79;21250;-70
2021/01/29 05:37:55;;;;;;;3.47;2.62;;;;;;;7.63;50.70;97757.08;1787768;78;21657;-70
2021/01/29 05:40:57;;;;;;;3.25;2.60;;;;;;;7.62;50.69;97753.30;1797239;79;21179;-68
2021/01/29 05:43:58;;;;;;;3.25;2.42;;;;;;;7.61;50.66;97749.85;1784215;79;21168;-68
2021/01/29 05:46:42;;;;;;;4.12;3.27;;;;;;;7.60;50.64;97752.17;1806947;79;21653;-68
2021/01/29 05:49:24;;;;;;;4.42;3.08;;;;;;;7.59;50.63;97742.63;1790154;78;21383;-68
2021/01/29 05:52:36;;;;;;;4.45;3.30;;;;;;;7.60;50.59;97742.92;1784808;79;21122;-67
2021/01/29 05:55:30;;;;;;;4.97;3.55;;;;;;;7.61;50.55;97743.73;1785196;79;21166;-68
2021/01/29 05:58:20;;;;;;;4.05;3.10;;;;;;;7.59;50.53;97751.87;1793945;79;21142;-69
2021/01/29 06:01:25;;;;;;;4.08;3.10;;;;;;;7.61;50.50;97741.09;1798403;78;21681;-70
2021/01/29 06:04:02;;;;;;;4.42;3.58;;;;;;;7.60;50.47;97735.00;1793011;79;21436;-68
2021/01/29 06:07:10;;;;;;;4.37;3.37;;;;;;;7.61;50.41;97726.55;1817303;78;21186;-70
2021/01/29 06:10:01;;;;;;;4.85;3.90;;;;;;;7.62;50.38;97734.29;1808560;78;21653;-68
2021/01/29 06:12:58;;;;;;;4.85;3.90;;;;;;;7.62;50.32;97718.44;1826004;78;21200;-68
2021/01/29 06:16:06;;;;;;;4.95;3.90;;;;;;;7.62;50.27;97706.54;1825028;78;21192;-69
2021/01/29 06:19:26;;;;;;;5.20;3.95;;;;;;;7.61;50.25;97707.57;1807482;78;22605;-69
2021/01/29 06:22:28;;;;;;;6.35;4.53;;;;;;;7.62;50.24;97713.15;1792501;79;21190;-68
2021/01/29 06:25:31;;;;;;;4.90;4.35;;;;;;;7.60;50.23;97722.30;1815714;78;21160;-69
2021/01/29 06:28:22;;;;;;;;;;;;;;;7.60;50.22;97719.66;1813110;78;21185;-69
2021/01/29 06:31:37;;;;;;;6.10;4.50;;;;;;;7.58;50.18;97721.17;1803852;78;20232;-69
2021/01/29 06:34:43;;;;;;;5.55;4.58;;;;;;;7.53;50.27;97735.98;1815388;78;21562;-69
2021/01/29 06:37:51;;;;;;;6.65;5.05;;;;;;;7.54;50.25;97719.94;1798390;78;21175;-69
2021/01/29 06:40:24;;;;;;;6.03;5.20;;;;;;;7.54;50.19;97718.62;1803978;78;21179;-69
2021/01/29 06:43:22;;;;;;;6.95;5.03;;;;;;;7.55;50.16;97722.06;1807601;78;21914;-68
2021/01/29 06:46:07;;;;;;;6.37;4.90;;;;;;;7.57;50.15;97730.13;1776826;79;21155;-70
2021/01/29 06:49:01;;;;;;;5.97;4.75;;;;;;;7.59;50.12;97730.73;1795915;78;21516;-71
2021/01/29 06:52:07;;;;;;;;;;;;;;;7.60;50.06;97723.10;1790278;79;21156;-70
2021/01/29 06:54:56;;;;;;;8.10;6.20;;;;;;;7.63;49.99;97720.56;1773850;79;20272;-71
2021/01/29 06:57:49;;;;;;;7.35;6.00;;;;;;;7.54;50.12;97717.30;1797914;78;21161;-70
2021/01/29 07:00:38;;;;;;;8.50;5.95;;;;;;;7.56;50.53;97724.52;1788300;79;21083;-72
2021/01/29 07:03:40;;;;;;;7.83;5.93;;;;;;;7.58;50.64;97722.48;1810118;78;21382;-66
2021/01/29 07:06:25;;;;;;;7.55;5.87;;;;;;;7.60;50.59;97715.69;1817978;78;21190;-68
2021/01/29 07:09:08;;;;;;;8.15;6.37;;;;;;;7.61;50.54;97706.25;1824431;78;21170;-67
2021/01/29 07:12:14;;;;;;;7.37;6.15;;;;;;;7.62;50.47;97698.61;1788468;78;21154;-69
2021/01/29 07:14:49;;;;;;;9.60;7.33;;;;;;;7.64;50.38;97684.69;1785246;79;21142;-69
2021/01/29 07:17:44;;;;;;;9.00;7.00;;;;;;;7.65;50.29;97698.23;1797262;79;22147;-69
2021/01/29 07:20:27;;;;;;;8.80;6.92;;;;;;;7.67;50.23;97682.17;1779694;79;21202;-69
2021/01/29 07:23:52;;;;;;;8.73;6.90;;;;;;;7.68;50.15;97684.59;1802257;79;21134;-68
2021/01/29 07:27:01;;;;;;;8.03;6.58;;;;;;;7.70;50.11;97682.27;1800183;79;21193;-70
2021/01/29 07:29:55;;;;;;;9.45;7.10;;;;;;;7.68;50.04;97678.50;1789914;79;21134;-69
2021/01/29 07:32:48;;;;;;;8.55;7.00;;;;;;;7.67;50.00;97677.70;1780121;79;22581;-71
2021/01/29 07:35:38;;;;;;;9.58;7.58;;;;;;;7.67;49.98;97688.78;1730019;79;21134;-68
2021/01/29 07:38:34;;;;;;;8.75;7.33;;;;;;;7.69;49.97;97680.15;1782303;79;21165;-68
2021/01/29 07:41:42;;;;;;;8.98;7.37;;;;;;;7.70;49.92;97676.98;1803060;79;21177;-68
2021/01/29 07:44:55;;;;;;;8.78;7.62;;;;;;;7.71;49.88;97687.37;1784585;79;21166;-68
2021/01/29 07:47:46;;;;;;;9.33;7.67;;;;;;;7.71;49.87;97675.95;1778016;79;21376;-69
2021/01/29 07:50:38;;;;;;;9.80;7.70;;;;;;;7.70;49.83;97673.83;1781163;79;21149;-68
2021/01/29 07:53:21;;;;;;;8.50;7.60;;;;;;;7.71;49.86;97674.64;1775636;79;21638;-68
2021/01/29 07:56:46;;;;;;;9.80;7.85;;;;;;;7.72;49.79;97667.84;1767568;79;21127;-69
2021/01/29 07:59:45;;;;;;;10.80;8.40;;;;;;;7.74;49.78;97673.73;1771703;79;21202;-69
2021/01/29 08:02:24;;;;;;;9.93;8.60;;;;;;;7.74;49.80;97672.93;1787776;79;22466;-68
2021/01/29 08:05:05;;;;;;;10.72;8.75;;;;;;;7.75;49.79;97673.25;1776522;79;21171;-68
2021/01/29 08:07:37;;;;;;;10.60;8.73;;;;;;;7.78;49.78;97672.83;1789422;79;21168;-67
2021/01/29 08:10:09;;;;;;;11.00;8.88;;;;;;;7.80;49.73;97666.83;1794539;79;21142;-67
2021/01/29 08:12:42;;;;;;;12.33;8.93;;;;;;;7.82;49.70;97668.28;1797859;78;21066;-68
2021/01/29 08:15:27;;;;;;;10.55;9.40;;;;;;;7.85;49.67;97675.80;1792414;79;22330;-68
2021/01/29 08:18:48;;;;;;;10.80;9.13;;;;;;;7.88;49.62;97660.86;1774139;80;21182;-67
2021/01/29 08:21:30;;;;;;;11.05;8.83;;;;;;;7.90;49.58;97659.83;1749955;80;21691;-67
2021/01/29 08:24:42;;;;;;;12.05;9.70;;;;;;;7.90;49.58;97659.83;1768432;79;21150;-67
2021/01/29 08:27:43;;;;;;;11.22;9.43;;;;;;;7.91;49.54;97661.47;1762133;80;21186;-68
2021/01/29 08:30:41;;;;;;;12.03;9.70;;;;;;;7.92;49.54;97659.95;1787291;79;21627;-67
2021/01/29 08:33:45;;;;;;;12.40;9.80;;;;;;;7.96;49.55;97649.28;1833621;75;27658;-68
2021/01/29 08:36:40;;;;;;;10.18;8.93;;;;;;;7.95;49.53;97650.28;1788429;78;21599;-67
2021/01/29 08:39:29;;;;;;;12.35;10.20;;;;;;;7.97;49.50;97654.05;1827915;77;21374;-67
2021/01/29 08:42:44;;;;;;;11.88;10.32;;;;;;;7.99;49.47;97656.78;1846397;75;21008;-67
2021/01/29 08:45:51;;;;;;;12.65;9.90;;;;;;;8.02;49.44;97659.55;1805748;78;21131;-67
2021/01/29 08:48:32;;;;;;;10.45;8.78;;;;;;;8.02;49.42;97650.30;1814049;77;21209;-68
2021/01/29 08:51:11;;;;;;;12.20;9.93;;;;;;;8.03;49.41;97666.45;1779310;78;21224;-68
2021/01/29 08:54:10;;;;;;;11.10;9.48;;;;;;;8.05;49.38;97656.00;1821366;76;21534;-67
2021/01/29 08:56:50;;;;;;;12.33;9.90;;;;;;;8.07;49.36;97657.09;1816365;78;21154;-69
2021/01/29 08:59:18;;;;;;;10.30;9.08;;;;;;;8.08;49.33;97648.97;1820412;78;21194;-67
2021/01/29 09:02:18;;;;;;;11.95;9.65;;;;;;;8.12;49.32;97648.57;1823439;77;21129;-67
2021/01/29 09:04:52;;;;;;;12.40;9.65;;;;;;;8.15;49.30;97648.15;1832884;77;22001;-67
2021/01/29 09:07:28;;;;;;;12.55;9.85;;;;;;;8.16;49.25;97640.53;1843482;77;21216;-68
2021/01/29 09:10:23;;;;;;;12.20;10.58;;;;;;;8.18;49.21;97643.78;1851306;77;21196;-68
2021/01/29 09:13:05;;;;;;;13.03;10.15;;;;;;;8.19;49.18;97634.81;1841521;75;21112;-68
2021/01/29 09:15:56;;;;;;;11.18;9.15;;;;;;;8.20;49.20;97654.45;1815908;77;21131;-68
2021/01/29 09:18:48;;;;;;;11.73;10.13;;;;;;;8.21;49.17;97642.06;1823277;77;21167;-67
2021/01/29 09:21:48;;;;;;;12.15;9.13;;;;;;;8.22;49.17;97645.00;1831625;77;21340;-68
2021/01/29 09:24:54;;;;;;;10.15;9.00;;;;;;;8.22;49.13;97644.48;1825132;77;21118;-67
2021/01/29 09:27:50;;;;;;;11.75;9.93;;;;;;;8.22;49.14;97660.36;1796103;77;21167;-68
2021/01/29 09:30:48;;;;;;;11.15;9.55;;;;;;;8.21;49.17;97647.36;1824480;77;21161;-68
2021/01/29 09:33:26;;;;;;;10.50;8.85;;;;;;;8.22;49.16;97643.16;1795496;78;21162;-69
2021/01/29 09:36:04;;;;;;;11.45;9.60;;;;;;;8.23;49.16;97640.03;1798274;78;21541;-68
2021/01/29 09:38:36;;;;;;;12.82;10.05;;;;;;;8.25;49.17;97642.77;1823236;78;21128;-66
2021/01/29 09:41:36;;;;;;;12.05;9.60;;;;;;;8.27;49.16;97634.62;1810654;77;21115;-67
2021/01/29 09:44:13;;;;;;;11.50;9.88;;;;;;;8.29;49.13;97632.59;1811320;77;21196;-67
2021/01/29 09:46:42;;;;;;;11.65;9.65;;;;;;;8.29;49.11;97635.23;1835673;77;21112;-67
2021/01/29 09:49:23;;;;;;;11.53;9.38;;;;;;;8.31;49.13;97635.84;1843661;77;21196;-67
2021/01/29 09:52:26;;;;;;;11.65;9.00;;;;;;;8.32;49.11;97630.84;1856061;77;21188;-67
2021/01/29 09:55:17;;;;;;;10.32;9.18;;;;;;;8.33;49.10;97639.09;1856020;77;21109;-67
2021/01/29 09:58:04;;;;;;;10.60;8.73;;;;;;;8.34;49.12;97627.48;1856857;77;21605;-69
2021/01/29 10:00:35;;;;;;;12.58;9.50;;;;;;;8.36;49.11;97626.77;1853970;77;21117;-67
2021/01/29 10:03:24;;;;;;;10.20;7.92;;;;;;;8.44;49.11;97620.47;1841727;77;26254;-68
2021/01/29 10:06:13;;;;;;;11.83;9.50;;;;;;;8.54;49.14;97608.17;1855766;77;21125;-68
2021/01/29 10:08:50;;;;;;;9.43;8.05;;;;;;;8.66;49.26;97608.63;1835144;77;21582;-68
2021/01/29 10:11:31;;;;;;;10.85;8.33;;;;;;;8.81;49.16;97608.91;1856817;77;21151;-69
2021/01/29 10:14:10;;;;;;;11.00;8.55;;;;;;;8.93;49.06;97613.84;1836978;77;21096;-66
2021/01/29 10:17:01;;;;;;;11.03;8.93;;;;;;;9.04;48.89;97605.77;1854643;77;23596;-70
2021/01/29 10:19:41;;;;;;;11.75;8.85;;;;;;;9.13;48.74;97599.18;1851442;77;21629;-68
2021/01/29 10:22:48;;;;;;;9.78;8.73;;;;;;;9.21;48.61;97604.26;1853326;77;21137;-71
2021/01/29 10:25:58;;;;;;;10.38;8.48;;;;;;;9.28;48.43;97597.59;1855832;77;21157;-66
2021/01/29 10:28:48;;;;;;;9.80;8.23;;;;;;;9.36;48.34;97601.83;1856483;77;21113;-65
2021/01/29 10:31:15;;;;;;;10.28;8.68;;;;;;;9.42;48.32;97589.05;1846549;77;21994;-66
2021/01/29 10:33:47;;;;;;;9.53;8.30;;;;;;;9.51;48.27;97593.59;1853362;77;21141;-67
2021/01/29 10:36:27;;;;;;;11.03;9.45;;;;;;;9.59;48.10;97588.83;1843649;77;21182;-69
2021/01/29 10:39:14;;;;;;;9.78;8.43;;;;;;;9.70;47.97;97587.86;1803488;78;21185;-68
2021/01/29 10:42:11;;;;;;;10.38;8.68;;;;;;;9.79;47.89;97576.77;1836504;77;21173;-69
2021/01/29 10:44:39;;;;;;;10.85;9.23;;;;;;;9.89;47.77;97582.92;1797743;78;21155;-67
2021/01/29 10:47:41;;;;;;;10.53;7.85;;;;;;;9.98;47.67;97581.59;1813598;78;21194;-69
2021/01/29 10:50:33;;;;;;;9.50;7.58;;;;;;;10.06;47.56;97573.08;1809253;78;21575;-68
2021/01/29 10:53:20;;;;;;;10.63;7.90;;;;;;;10.13;47.42;97575.97;1841940;77;21591;-68
2021/01/29 10:56:08;;;;;;;9.53;8.38;;;;;;;10.21;47.37;97566.39;1849720;75;21150;-68
2021/01/29 10:59:05;;;;;;;9.15;7.55;;;;;;;10.34;47.31;97569.99;1840432;75;21198;-68
2021/01/29 11:01:41;;;;;;;9.43;8.20;;;;;;;10.46;47.22;97564.77;1850186;77;21566;-67
2021/01/29 11:04:21;;;;;;;8.33;7.10;;;;;;;10.62;47.13;97570.80;1853066;77;21609;-66
2021/01/29 11:07:07;;;;;;;10.03;8.40;;;;;;;10.80;47.13;97577.98;1853210;75;21224;-67
2021/01/29 11:09:38;;;;;;;8.68;7.05;;;;;;;11.00;47.07;97582.52;1806670;78;21580;-68
2021/01/29 11:12:32;;;;;;;7.47;6.67;;;;;;;11.22;46.92;97583.36;1809928;78;22375;-67
2021/01/29 11:15:50;;;;;;;9.73;7.30;;;;;;;11.43;46.67;97580.72;1796596;78;25416;-68
2021/01/29 11:18:37;;;;;;;8.10;6.70;;;;;;;11.70;46.48;97589.64;1815085;77;21118;-67
2021/01/29 11:23:04;;;;;;;7.28;6.40;;;;;;;12.35;45.97;97573.66;1817187;75;28182;-68
2021/01/29 11:26:19;;;;;;;7.60;6.58;;;;;;;12.58;45.68;97586.14;1802909;77;21631;-67
2021/01/29 11:29:15;;;;;;;7.62;6.58;;;;;;;12.84;45.18;97588.53;1805211;78;21687;-67
2021/01/29 11:32:22;;;;;;;6.70;5.37;;;;;;;13.02;44.82;97587.55;1789719;78;21938;-68
2021/01/29 11:35:12;;;;;;;8.68;7.17;;;;;;;13.11;44.60;97589.60;1759842;78;21130;-67
2021/01/29 11:38:00;;;;;;;6.22;5.62;;;;;;;13.13;44.80;97580.88;1776714;79;21752;-67
2021/01/29 11:40:50;;;;;;;7.42;6.37;;;;;;;13.13;44.78;97586.20;1793311;78;21203;-67
2021/01/29 11:43:39;;;;;;;7.78;6.53;;;;;;;13.14;44.69;97581.67;1819429;77;27952;-67
2021/01/29 11:46:28;;;;;;;7.08;6.33;;;;;;;13.32;44.25;97586.83;1804205;79;21101;-67
2021/01/29 11:49:10;;;;;;;6.80;6.10;;;;;;;13.55;43.72;97581.11;1787012;79;22408;-67
2021/01/29 11:51:58;;;;;;;6.92;6.10;;;;;;;13.47;43.81;97580.98;1807769;78;21038;-66
2021/01/29 11:54:37;;;;;;;6.17;5.50;;;;;;;13.43;43.87;97578.51;1810432;78;21184;-68
2021/01/29 11:57:30;;;;;;;6.42;5.70;;;;;;;13.43;43.85;97580.38;1804230;78;21094;-66
2021/01/29 12:00:20;;;;;;;7.62;5.87;;;;;;;13.44;43.90;97576.64;1792112;78;21592;-67
2021/01/29 12:03:25;;;;;;;6.33;5.12;;;;;;;13.46;44.00;97579.88;1795955;78;21195;-68
2021/01/29 12:06:16;;;;;;;6.72;5.15;;;;;;;13.47;44.06;97581.52;1768520;79;21233;-68
2021/01/29 12:09:08;;;;;;;5.03;4.53;;;;;;;13.44;44.11;97580.11;1797593;79;21129;-67
2021/01/29 12:11:59;;;;;;;6.13;5.40;;;;;;;13.41;43.99;97582.47;1777170;79;21138;-68
2021/01/29 12:14:52;;;;;;;5.62;5.03;;;;;;;13.38;43.99;97585.07;1779354;79;22426;-68
2021/01/29 12:17:28;;;;;;;5.65;5.00;;;;;;;13.36;44.00;97579.97;1787108;79;21700;-66
2021/01/29 12:20:08;;;;;;;5.40;4.47;;;;;;;13.39;44.08;97594.70;1793509;80;21129;-68
2021/01/29 12:22:53;;;;;;;5.70;5.10;;;;;;;13.47;44.14;97586.31;1793730;80;21128;-68
2021/01/29 12:25:51;;;;;;;5.83;4.70;;;;;;;13.72;44.10;97582.48;1812526;77;28216;-67
2021/01/29 12:28:33;;;;;;;5.95;5.30;;;;;;;13.90;43.82;97586.77;1818093;78;21140;-67
2021/01/29 12:31:55;;;;;;;5.58;4.40;;;;;;;14.25;43.34;97579.83;1808644;77;28644;-69
2021/01/29 12:34:30;;;;;;;5.75;4.85;;;;;;;14.47;42.96;97575.09;1805596;78;21146;-68
2021/01/29 12:37:06;;;;;;;5.12;4.53;;;;;;;14.79;42.55;97589.95;1790296;78;21353;-68
2021/01/29 12:39:50;;;;;;;5.35;4.85;;;;;;;15.04;42.22;97586.78;1815151;78;21145;-67
2021/01/29 12:42:29;;;;;;;5.22;4.40;;;;;;;15.26;41.92;97581.94;1811325;78;21214;-67
2021/01/29 12:45:03;;;;;;;4.20;3.72;;;;;;;15.42;41.58;97582.39;1814315;78;21135;-68
2021/01/29 12:48:09;;;;;;;5.05;4.28;;;;;;;15.54;41.42;97581.70;1818473;78;21630;-68
2021/01/29 12:51:05;;;;;;;6.15;4.60;;;;;;;15.61;41.31;97582.86;1814866;78;22734;-67
2021/01/29 12:54:04;;;;;;;4.70;4.17;;;;;;;15.59;41.37;97582.81;1817566;78;21512;-68
2021/01/29 12:56:40;;;;;;;4.33;3.92;;;;;;;15.50;41.54;97582.47;1776542;78;21141;-69
2021/01/29 12:59:09;;;;;;;5.50;4.28;;;;;;;15.37;41.74;97589.02;1794174;78;21181;-69
2021/01/29 13:01:42;;;;;;;5.20;4.20;;;;;;;15.27;41.86;97599.63;1754838;78;21166;-68
2021/01/29 13:04:28;;;;;;;4.95;3.85;;;;;;;15.17;42.01;97598.18;1794990;78;21360;-68
2021/01/29 13:07:13;;;;;;;4.80;4.22;;;;;;;15.05;42.19;97607.13;1818132;78;21583;-69
2021/01/29 13:09:56;;;;;;;4.53;4.12;;;;;;;14.93;42.30;97606.43;1811103;78;21184;-67
2021/01/29 13:13:01;;;;;;;4.60;4.12;;;;;;;14.80;42.44;97602.28;1807186;78;21598;-69
2021/01/29 13:16:07;;;;;;;5.17;4.03;;;;;;;14.68;42.57;97602.90;1789134;78;21149;-67
2021/01/29 13:18:52;;;;;;;4.12;3.72;;;;;;;14.54;42.65;97605.92;1791090;78;21240;-68
2021/01/29 13:21:35;;;;;;;4.72;3.98;;;;;;;14.39;42.81;97602.20;1795595;78;21594;-68
2021/01/29 13:24:06;;;;;;;4.97;4.00;;;;;;;14.28;42.98;97614.07;1790538;78;21160;-69
2021/01/29 13:26:43;;;;;;;4.80;3.95;;;;;;;14.18;43.11;97612.59;1786223;78;21160;-70